createdAt,value
2024-03-15T00:01:40.407Z,12.88
2024-03-15T00:04:07.628Z,12.92
2024-03-15T00:06:35.519Z,13.01
2024-03-15T00:09:02.846Z,13.01
2024-03-15T00:11:31.852Z,13.02
2024-03-15T00:13:58.843Z,13.09
2024-03-15T00:16:27.026Z,13.04
2024-03-15T00:18:55.232Z,13.05
2024-03-15T00:21:25.363Z,13.04
2024-03-15T00:23:55.779Z,12.99
2024-03-15T00:26:23.779Z,12.98
2024-03-15T00:28:50.820Z,12.99
2024-03-15T00:31:17.793Z,12.99
2024-03-15T00:33:44.767Z,12.98
2024-03-15T00:36:13.420Z,12.98
2024-03-15T00:38:41.544Z,13.05
2024-03-15T00:41:08.494Z,13.06
2024-03-15T00:43:37.588Z,13.06
2024-03-15T00:46:04.775Z,13.08
2024-03-15T00:48:31.860Z,13.13
2024-03-15T00:50:58.823Z,13.16
2024-03-15T00:53:25.715Z,13.18
2024-03-15T00:55:52.866Z,13.19
2024-03-15T00:58:20.346Z,13.25
2024-03-15T01:00:50.933Z,13.27
2024-03-15T01:03:20.119Z,13.32
2024-03-15T01:05:47.160Z,13.39
2024-03-15T01:08:14.570Z,13.41
2024-03-15T01:10:43.214Z,13.50
2024-03-15T01:13:10.325Z,13.47
2024-03-15T01:15:37.417Z,13.46
2024-03-15T01:18:04.891Z,13.42
2024-03-15T01:20:34.095Z,13.43
2024-03-15T01:23:01.158Z,13.41
2024-03-15T01:25:28.243Z,13.42
2024-03-15T01:27:59.689Z,13.38
2024-03-15T01:30:26.658Z,13.36
2024-03-15T01:32:56.822Z,13.35
2024-03-15T01:35:33.644Z,13.35
2024-03-15T01:38:04.729Z,13.38
2024-03-15T01:40:32.699Z,13.30
2024-03-15T01:42:59.607Z,13.27
2024-03-15T01:45:26.645Z,13.29
2024-03-15T01:47:54.284Z,13.21
2024-03-15T01:50:24.474Z,13.25
2024-03-15T01:52:53.744Z,13.29
2024-03-15T01:55:28.122Z,13.29
2024-03-15T01:57:55.469Z,13.26
2024-03-15T02:00:22.487Z,13.25
2024-03-15T02:02:49.869Z,13.30
2024-03-15T02:05:17.914Z,13.32
2024-03-15T02:07:45.221Z,13.39
2024-03-15T02:10:21.299Z,13.36
2024-03-15T02:15:28.936Z,13.43
2024-03-15T02:17:56.419Z,13.45
2024-03-15T02:20:24.373Z,13.39
2024-03-15T02:22:51.285Z,13.45
2024-03-15T02:25:19.678Z,13.41
2024-03-15T02:27:49.395Z,13.38
2024-03-15T02:30:17.988Z,13.35
2024-03-15T02:32:45.239Z,13.33
2024-03-15T02:35:20.066Z,13.33
2024-03-15T02:37:53.952Z,13.33
2024-03-15T02:40:21.172Z,13.39
2024-03-15T02:42:48.784Z,13.42
2024-03-15T02:45:16.394Z,13.45
2024-03-15T02:47:45.146Z,13.46
2024-03-15T02:50:12.165Z,13.49
2024-03-15T02:52:39.065Z,13.50
2024-03-15T02:55:06.662Z,13.46
2024-03-15T02:57:33.726Z,13.54
2024-03-15T03:00:00.745Z,13.53
2024-03-15T03:02:27.743Z,13.54
2024-03-15T03:04:54.701Z,13.53
2024-03-15T03:07:22.926Z,13.54
2024-03-15T03:09:50.033Z,13.59
2024-03-15T03:12:17.125Z,13.60
2024-03-15T03:14:44.301Z,13.59
2024-03-15T03:17:12.472Z,13.53
2024-03-15T03:19:39.504Z,13.43
2024-03-15T03:22:07.569Z,12.91
2024-03-15T03:24:35.740Z,12.60
2024-03-15T03:27:02.748Z,12.45
2024-03-15T03:29:30.352Z,12.39
2024-03-15T03:31:59.646Z,12.29
2024-03-15T03:34:26.662Z,12.23
2024-03-15T03:36:59.675Z,12.22
2024-03-15T03:39:27.657Z,12.20
2024-03-15T03:41:56.190Z,12.27
2024-03-15T03:44:23.193Z,12.24
2024-03-15T03:46:50.160Z,12.26
2024-03-15T03:49:17.236Z,12.26
2024-03-15T03:51:44.264Z,12.24
2024-03-15T03:54:13.291Z,12.20
2024-03-15T03:56:40.335Z,12.16
2024-03-15T03:59:07.370Z,12.12
2024-03-15T04:01:35.489Z,12.05
2024-03-15T04:04:07.369Z,12.03
2024-03-15T04:06:34.510Z,12.03
2024-03-15T04:09:02.134Z,12.06
2024-03-15T04:11:29.630Z,12.10
2024-03-15T04:13:56.598Z,12.09
2024-03-15T04:16:23.667Z,12.12
2024-03-15T04:18:51.396Z,12.10
2024-03-15T04:21:19.482Z,12.09
2024-03-15T04:23:47.921Z,12.09
2024-03-15T04:26:14.865Z,12.12
2024-03-15T04:28:43.253Z,12.16
2024-03-15T04:31:10.246Z,12.13
2024-03-15T04:33:37.366Z,12.22
2024-03-15T04:36:06.379Z,12.20
2024-03-15T04:38:34.100Z,12.20
2024-03-15T04:41:11.278Z,12.20
2024-03-15T04:43:38.656Z,12.17
2024-03-15T04:46:06.225Z,12.22
2024-03-15T04:48:33.709Z,12.23
2024-03-15T04:51:01.830Z,12.24
2024-03-15T04:53:30.165Z,12.20
2024-03-15T04:55:57.158Z,12.23
2024-03-15T04:58:32.056Z,12.24
2024-03-15T05:00:59.169Z,12.24
2024-03-15T05:03:26.238Z,12.32
2024-03-15T05:05:53.149Z,12.32
2024-03-15T05:08:20.182Z,12.32
2024-03-15T05:10:51.261Z,12.43
2024-03-15T05:13:18.325Z,12.37
2024-03-15T05:15:45.253Z,12.44
2024-03-15T05:18:16.017Z,12.40
2024-03-15T05:20:43.228Z,12.44
2024-03-15T05:23:10.298Z,12.47
2024-03-15T05:25:37.783Z,12.41
2024-03-15T05:28:06.910Z,12.34
2024-03-15T05:30:33.856Z,12.29
2024-03-15T05:33:01.239Z,12.27
2024-03-15T05:35:30.360Z,12.27
2024-03-15T05:50:17.980Z,12.15
2024-03-15T05:52:45.282Z,12.09
2024-03-15T05:55:13.030Z,12.09
2024-03-15T05:57:40.915Z,12.13
2024-03-15T06:00:17.115Z,12.10
2024-03-15T06:02:45.447Z,12.10
2024-03-15T06:05:14.367Z,12.06
2024-03-15T06:07:42.860Z,12.13
2024-03-15T06:10:09.844Z,12.16
2024-03-15T06:12:36.952Z,12.16
2024-03-15T06:15:05.345Z,12.15
2024-03-15T06:17:33.050Z,12.15
2024-03-15T06:20:01.217Z,12.16
2024-03-15T06:22:28.173Z,12.10
2024-03-15T06:24:57.508Z,12.12
2024-03-15T06:27:24.771Z,12.12
2024-03-15T06:29:54.023Z,12.17
2024-03-15T06:32:28.063Z,12.15
2024-03-15T06:34:56.653Z,12.15
2024-03-15T06:37:25.005Z,12.15
2024-03-15T06:39:57.990Z,12.16
2024-03-15T06:42:26.018Z,12.20
2024-03-15T06:45:05.265Z,12.27
2024-03-15T06:47:34.640Z,12.32
2024-03-15T06:50:08.109Z,12.24
2024-03-15T06:52:37.880Z,12.36
2024-03-15T06:55:08.600Z,12.41
2024-03-15T06:57:54.046Z,12.48
2024-03-15T07:00:55.688Z,12.55
2024-03-15T07:03:26.081Z,12.65
2024-03-15T07:05:53.075Z,12.64
2024-03-15T07:08:38.079Z,12.55
2024-03-15T07:11:05.764Z,12.60
2024-03-15T07:13:48.804Z,12.65
2024-03-15T07:16:18.026Z,12.75
2024-03-15T07:18:50.378Z,12.80
2024-03-15T07:21:34.047Z,12.78
2024-03-15T07:24:07.668Z,12.85
2024-03-15T07:26:50.110Z,12.82
2024-03-15T07:29:25.438Z,12.90
2024-03-15T07:31:56.950Z,12.96
2024-03-15T07:34:23.985Z,13.02
2024-03-15T07:36:51.065Z,12.98
2024-03-15T07:39:18.103Z,13.01
2024-03-15T07:41:45.306Z,13.05
2024-03-15T07:44:16.398Z,13.02
2024-03-15T07:46:43.639Z,13.02
2024-03-15T07:49:30.886Z,13.01
2024-03-15T07:52:02.452Z,12.96
2024-03-15T07:54:35.418Z,13.04
2024-03-15T07:57:17.402Z,13.13
2024-03-15T07:59:55.932Z,13.19
2024-03-15T08:02:26.210Z,13.25
2024-03-15T08:04:58.675Z,13.36
2024-03-15T08:07:30.730Z,13.36
2024-03-15T08:09:57.849Z,13.38
2024-03-15T08:12:25.937Z,13.50
2024-03-15T08:26:16.559Z,13.66
2024-03-15T08:55:43.863Z,13.83
2024-03-15T08:58:13.044Z,13.90
2024-03-15T09:00:40.823Z,13.93
2024-03-15T09:03:10.506Z,13.80
2024-03-15T09:05:40.038Z,13.83
2024-03-15T09:08:12.419Z,13.84
2024-03-15T09:10:41.387Z,13.85
2024-03-15T09:13:08.957Z,13.96
2024-03-15T09:15:36.792Z,14.11
2024-03-15T09:18:10.272Z,14.24
2024-03-15T09:20:44.124Z,14.35
2024-03-15T09:23:14.042Z,14.46
2024-03-15T09:25:41.071Z,14.42
2024-03-15T09:28:11.195Z,14.59
2024-03-15T09:30:50.973Z,14.86
2024-03-15T09:33:29.393Z,14.96
2024-03-15T09:36:00.493Z,14.92
2024-03-15T09:38:27.536Z,14.93
2024-03-15T09:41:00.147Z,14.90
2024-03-15T09:43:31.878Z,14.78
2024-03-15T09:45:59.479Z,14.71
2024-03-15T09:48:30.493Z,14.97
2024-03-15T09:51:05.427Z,14.97
2024-03-15T09:53:32.674Z,14.99
2024-03-15T09:56:02.554Z,14.84
2024-03-15T09:58:29.965Z,14.65
2024-03-15T10:00:59.908Z,14.62
2024-03-15T10:03:27.124Z,14.52
2024-03-15T10:05:55.304Z,14.49
2024-03-15T10:11:04.118Z,14.63
2024-03-15T10:13:32.093Z,14.84
2024-03-15T10:16:01.712Z,14.90
2024-03-15T10:18:36.033Z,14.89
2024-03-15T10:21:03.070Z,14.90
2024-03-15T10:23:30.327Z,14.63
2024-03-15T10:25:57.727Z,14.61
2024-03-15T10:28:24.974Z,14.04
2024-03-15T10:30:51.989Z,13.87
2024-03-15T10:33:19.196Z,13.97
2024-03-15T10:35:46.496Z,14.12
2024-03-15T10:38:16.429Z,14.10
2024-03-15T10:40:44.605Z,14.28
2024-03-15T10:43:14.554Z,14.48
2024-03-15T10:45:42.970Z,14.63
2024-03-15T10:48:11.540Z,14.84
2024-03-15T10:50:47.403Z,14.93
2024-03-15T10:53:17.464Z,15.00
2024-03-15T10:55:44.407Z,15.13
2024-03-15T10:58:12.978Z,15.07
2024-03-15T11:00:40.814Z,15.03
2024-03-15T11:03:27.309Z,15.06
2024-03-15T11:05:56.542Z,14.99
2024-03-15T11:08:23.982Z,15.04
2024-03-15T11:11:04.669Z,14.89
2024-03-15T11:13:38.364Z,14.96
2024-03-15T11:16:26.319Z,14.99
2024-03-15T11:18:53.706Z,15.14
2024-03-15T11:21:22.922Z,15.40
2024-03-15T11:23:51.148Z,15.75
2024-03-15T11:26:22.652Z,15.99
2024-03-15T11:29:00.038Z,16.34
2024-03-15T11:31:30.566Z,16.26
2024-03-15T11:34:01.147Z,16.17
2024-03-15T11:36:30.428Z,16.13
2024-03-15T11:38:58.233Z,16.06
2024-03-15T11:41:25.554Z,16.05
2024-03-15T11:44:05.824Z,16.23
2024-03-15T11:46:34.019Z,16.53
2024-03-15T11:49:07.208Z,16.51
2024-03-15T11:51:34.255Z,16.71
2024-03-15T11:54:01.427Z,16.84
2024-03-15T11:56:30.287Z,16.49
2024-03-15T11:59:04.269Z,16.22
2024-03-15T12:01:32.179Z,16.09
2024-03-15T12:04:00.960Z,15.92
2024-03-15T12:06:28.027Z,15.86
2024-03-15T12:09:04.495Z,15.78
2024-03-15T12:11:38.193Z,15.69
2024-03-15T12:14:08.735Z,15.82
2024-03-15T12:16:43.178Z,15.95
2024-03-15T12:19:16.765Z,15.88
2024-03-15T12:22:11.273Z,15.93
2024-03-15T12:24:38.614Z,17.33
2024-03-15T12:27:11.744Z,16.96
2024-03-15T12:29:46.063Z,16.59
2024-03-15T12:32:14.035Z,16.17
2024-03-15T12:34:41.479Z,16.29
2024-03-15T12:37:10.032Z,16.40
2024-03-15T12:39:41.209Z,16.40
2024-03-15T12:42:10.026Z,16.15
2024-03-15T12:44:37.264Z,16.26
2024-03-15T12:47:04.359Z,16.43
2024-03-15T12:49:33.795Z,16.40
2024-03-15T12:52:01.336Z,16.63
2024-03-15T12:54:28.441Z,16.27
2024-03-15T12:57:06.904Z,15.98
2024-03-15T12:59:33.963Z,16.47
2024-03-15T13:02:01.969Z,16.94
2024-03-15T13:04:29.021Z,17.87
2024-03-15T13:06:56.446Z,17.08
2024-03-15T13:09:24.726Z,16.60
2024-03-15T13:11:51.696Z,16.16
2024-03-15T13:14:23.032Z,15.55
2024-03-15T13:16:49.992Z,15.19
2024-03-15T13:19:16.959Z,15.72
2024-03-15T13:21:44.512Z,15.98
2024-03-15T13:24:12.640Z,16.71
2024-03-15T13:26:39.546Z,17.83
2024-03-15T13:29:13.834Z,17.89
2024-03-15T13:31:40.813Z,17.30
2024-03-15T13:34:36.676Z,17.76
2024-03-15T13:37:03.815Z,17.93
2024-03-15T13:39:32.554Z,17.97
2024-03-15T13:41:59.639Z,19.40
2024-03-15T13:44:40.816Z,19.67
2024-03-15T13:48:22.408Z,18.01
2024-03-15T13:51:03.899Z,16.75
2024-03-15T13:53:34.064Z,16.26
2024-03-15T13:56:01.185Z,15.92
2024-03-15T13:59:32.534Z,15.86
2024-03-15T14:02:39.778Z,15.14
2024-03-15T14:05:17.916Z,14.55
2024-03-15T14:07:51.857Z,14.17
2024-03-15T14:10:21.619Z,14.25
2024-03-15T14:12:51.112Z,14.68
2024-03-15T14:15:21.122Z,15.13
2024-03-15T14:17:53.952Z,14.76
2024-03-15T14:20:26.012Z,14.41
2024-03-15T14:22:59.207Z,14.49
2024-03-15T14:25:41.305Z,15.71
2024-03-15T14:28:16.232Z,15.81
2024-03-15T14:30:49.616Z,16.16
2024-03-15T14:33:28.561Z,16.10
2024-03-15T14:35:59.440Z,16.12
2024-03-15T14:38:34.187Z,17.76
2024-03-15T14:41:02.558Z,17.14
2024-03-15T14:43:30.871Z,16.20
2024-03-15T14:46:23.712Z,15.61
2024-03-15T14:48:58.547Z,15.29
2024-03-15T14:51:52.122Z,15.19
2024-03-15T14:54:48.184Z,15.65
2024-03-15T15:03:24.267Z,16.78
2024-03-15T15:05:54.107Z,16.67
2024-03-15T15:08:25.592Z,16.41
2024-03-15T15:10:54.404Z,16.09
2024-03-15T15:13:46.891Z,16.15
2024-03-15T15:16:19.716Z,15.93
2024-03-15T15:18:52.782Z,15.95
2024-03-15T15:21:20.226Z,15.72
2024-03-15T15:23:47.350Z,15.47
2024-03-15T15:26:14.575Z,15.40
2024-03-15T15:28:48.741Z,15.23
2024-03-15T15:31:33.740Z,15.17
2024-03-15T15:34:03.573Z,15.26
2024-03-15T15:37:03.740Z,15.17
2024-03-15T15:39:38.670Z,15.41
2024-03-15T15:42:39.882Z,15.72
2024-03-15T15:45:51.326Z,15.61
2024-03-15T15:52:25.892Z,15.65
2024-03-15T15:54:53.748Z,15.66
2024-03-15T15:57:23.384Z,15.48
2024-03-15T15:59:54.971Z,15.38
2024-03-15T16:02:45.494Z,15.52
2024-03-15T16:05:15.119Z,15.33
2024-03-15T16:07:45.733Z,15.24
2024-03-15T16:10:13.496Z,15.00
2024-03-15T16:12:46.282Z,14.92
2024-03-15T16:15:13.467Z,14.73
2024-03-15T16:17:40.618Z,14.68
2024-03-15T16:20:09.846Z,14.65
2024-03-15T16:22:37.587Z,14.63
2024-03-15T16:25:07.449Z,14.65
2024-03-15T16:27:41.588Z,14.56
2024-03-15T16:30:09.275Z,14.58
2024-03-15T16:32:36.380Z,14.56
2024-03-15T16:35:08.216Z,14.61
2024-03-15T16:37:35.826Z,14.61
2024-03-15T16:40:02.923Z,14.73
2024-03-15T16:42:31.119Z,14.59
2024-03-15T16:44:59.358Z,14.53
2024-03-15T16:47:26.342Z,14.49
2024-03-15T16:49:53.343Z,14.43
2024-03-15T16:52:20.573Z,14.39
2024-03-15T16:54:47.784Z,14.27
2024-03-15T16:57:27.572Z,14.18
2024-03-15T17:00:00.822Z,14.24
2024-03-15T17:20:31.281Z,13.96
2024-03-15T17:22:58.287Z,14.03
2024-03-15T17:25:25.319Z,13.84
2024-03-15T17:27:53.418Z,13.76
2024-03-15T17:30:21.138Z,13.77
2024-03-15T17:32:48.232Z,13.77
2024-03-15T17:35:20.613Z,13.76
2024-03-15T17:37:47.631Z,13.77
2024-03-15T17:40:14.665Z,13.73
2024-03-15T17:42:41.659Z,13.78
2024-03-15T17:45:13.055Z,13.83
2024-03-15T17:47:40.229Z,13.87
2024-03-15T17:50:10.516Z,13.78
2024-03-15T17:52:45.302Z,13.72
2024-03-15T17:55:12.429Z,13.69
2024-03-15T17:57:39.617Z,13.69
2024-03-15T18:00:13.441Z,13.59
2024-03-15T18:02:45.379Z,13.53
2024-03-15T18:05:15.812Z,13.54
2024-03-15T18:07:43.042Z,13.46
2024-03-15T18:10:13.927Z,13.42
2024-03-15T18:12:41.277Z,13.39
2024-03-15T18:15:08.673Z,13.32
2024-03-15T18:17:38.988Z,13.23
2024-03-15T18:20:13.747Z,13.19
2024-03-15T18:22:41.320Z,13.12
2024-03-15T18:25:11.868Z,13.12
2024-03-15T18:27:39.254Z,13.11
2024-03-15T18:30:07.469Z,13.06
2024-03-15T18:32:40.295Z,13.05
2024-03-15T18:35:07.946Z,13.16
2024-03-15T18:37:34.920Z,13.16
2024-03-15T18:40:02.155Z,13.16
2024-03-15T18:42:29.320Z,13.23
2024-03-15T18:44:58.266Z,13.15
2024-03-15T18:47:25.318Z,13.25
2024-03-15T18:49:53.415Z,13.27
2024-03-15T18:52:21.395Z,13.25
2024-03-15T18:54:50.521Z,13.23
2024-03-15T18:57:18.317Z,13.16
2024-03-15T18:59:47.886Z,13.12
2024-03-15T19:02:20.524Z,13.08
2024-03-15T19:04:52.625Z,13.06
2024-03-15T19:07:25.918Z,13.04
2024-03-15T19:09:53.314Z,13.04
2024-03-15T19:12:22.698Z,12.99
2024-03-15T19:14:52.995Z,12.92
2024-03-15T19:17:20.069Z,12.85
2024-03-15T19:19:48.515Z,12.88
2024-03-15T19:22:18.178Z,12.75
2024-03-15T19:24:45.673Z,12.80
2024-03-15T19:27:13.124Z,12.68
2024-03-15T19:29:40.128Z,12.70
2024-03-15T19:32:10.073Z,12.70
2024-03-15T19:34:39.227Z,12.58
2024-03-15T19:37:07.279Z,12.61
2024-03-15T19:39:36.363Z,12.54
2024-03-15T19:42:03.401Z,12.53
2024-03-15T19:44:30.360Z,12.57
2024-03-15T19:46:57.685Z,12.47
2024-03-15T19:49:24.611Z,12.45
2024-03-15T19:51:52.819Z,12.43
2024-03-15T19:54:20.619Z,12.43
2024-03-15T19:56:48.291Z,12.41
2024-03-15T19:59:16.439Z,12.44
2024-03-15T20:01:44.641Z,12.48
2024-03-15T20:04:12.501Z,12.48
2024-03-15T20:06:42.202Z,12.47
2024-03-15T20:09:09.319Z,12.47
2024-03-15T20:11:38.409Z,12.43
2024-03-15T20:14:07.146Z,12.47
2024-03-15T20:16:34.544Z,12.39
2024-03-15T20:19:01.820Z,12.29
2024-03-15T20:21:28.881Z,12.27
2024-03-15T20:23:59.696Z,12.27
2024-03-15T20:26:30.388Z,12.16
2024-03-15T20:28:57.437Z,12.10
2024-03-15T20:31:24.398Z,12.13
2024-03-15T20:33:51.485Z,12.09
2024-03-15T20:36:18.478Z,12.06
2024-03-15T20:38:45.513Z,12.05
2024-03-15T20:41:12.435Z,11.97
2024-03-15T20:43:48.064Z,11.90
2024-03-15T20:46:14.960Z,11.90
2024-03-15T20:48:42.386Z,11.92
2024-03-15T20:51:11.374Z,12.00
2024-03-15T20:53:40.009Z,12.09
2024-03-15T20:56:08.852Z,12.15
2024-03-15T20:58:38.399Z,12.24
2024-03-15T21:01:08.143Z,12.27
2024-03-15T21:03:38.632Z,12.23
2024-03-15T21:06:06.629Z,12.19
2024-03-15T21:08:35.965Z,12.20
2024-03-15T21:11:02.989Z,12.13
2024-03-15T21:13:30.114Z,12.05
2024-03-15T21:15:57.316Z,12.02
2024-03-15T21:18:26.532Z,11.95
2024-03-15T21:21:00.305Z,12.03
2024-03-15T21:23:27.822Z,12.03
2024-03-15T21:25:57.066Z,12.09
2024-03-15T21:28:27.032Z,12.07
2024-03-15T21:30:57.737Z,12.10
2024-03-15T21:33:25.682Z,12.07
2024-03-15T21:35:53.188Z,12.00
2024-03-15T21:38:21.603Z,11.97
2024-03-15T21:40:55.942Z,11.96
2024-03-15T21:43:27.366Z,12.07
2024-03-15T21:45:58.098Z,12.16
2024-03-15T21:48:25.154Z,12.17
2024-03-15T21:50:52.186Z,12.17
2024-03-15T21:53:19.454Z,12.22
2024-03-15T21:55:54.866Z,12.19
2024-03-15T21:58:22.694Z,12.20
2024-03-15T22:00:50.336Z,12.24
2024-03-15T22:03:19.914Z,12.24
2024-03-15T22:05:48.023Z,12.23
2024-03-15T22:08:15.575Z,12.26
2024-03-15T22:10:42.512Z,12.20
2024-03-15T22:13:09.561Z,12.23
2024-03-15T22:15:36.790Z,12.23
2024-03-15T22:18:04.894Z,12.20
2024-03-15T22:20:31.908Z,12.23
2024-03-15T22:23:01.319Z,12.20
2024-03-15T22:25:30.288Z,12.20
2024-03-15T22:27:59.295Z,12.15
2024-03-15T22:30:27.480Z,12.19
2024-03-15T22:33:00.604Z,12.17
2024-03-15T22:35:28.423Z,12.16
2024-03-15T22:37:55.863Z,12.15
2024-03-15T22:40:24.240Z,12.16
2024-03-15T22:42:51.223Z,12.13
2024-03-15T22:45:19.254Z,12.13
2024-03-15T22:47:46.230Z,12.16
2024-03-15T22:50:13.487Z,12.13
2024-03-15T22:52:44.813Z,12.20
2024-03-15T22:55:12.411Z,12.16
2024-03-15T22:57:39.719Z,12.19
2024-03-15T23:00:17.905Z,12.22
2024-03-15T23:02:45.062Z,12.17
2024-03-15T23:05:12.986Z,12.22
2024-03-15T23:07:40.037Z,12.12
2024-03-15T23:10:09.167Z,12.17
2024-03-15T23:12:36.260Z,12.27
2024-03-15T23:15:06.756Z,12.19
2024-03-15T23:17:34.701Z,12.23
2024-03-15T23:20:01.867Z,12.17
2024-03-15T23:22:29.053Z,12.17
2024-03-15T23:24:56.276Z,12.17
2024-03-15T23:27:25.586Z,12.24
2024-03-15T23:29:54.853Z,12.24
2024-03-15T23:32:21.816Z,12.34
2024-03-15T23:34:49.461Z,12.20
2024-03-15T23:37:16.485Z,12.26
2024-03-15T23:39:48.599Z,12.19
2024-03-15T23:42:15.555Z,12.16
2024-03-15T23:44:42.442Z,12.19
2024-03-15T23:47:12.298Z,12.17
2024-03-15T23:49:44.314Z,12.16
2024-03-15T23:52:11.372Z,12.10
2024-03-15T23:54:38.802Z,12.05
2024-03-15T23:57:06.033Z,12.13
2024-03-15T23:59:33.520Z,11.99
